This is the latest recevied weather packets stored in our database for station/object AC1IX. If no packets are shown the sender has not sent any weather packets the latest 10 day(s).
| Time | Temp. | Humidity | Pressure | Rain* | Wind** | Luminosity | Snow |
|---|---|---|---|---|---|---|---|
| 1777845453 | 10.56° C | 41% | 1009 hPa | 0 mm | - | 57 W/m² | - |
| 1777845150 | 11.11° C | 42% | 1009 hPa | 0 mm | - | 59 W/m² | - |
| 1777844545 | 11.11° C | 42% | 1009 hPa | 0 mm | - | 186 W/m² | - |
| 1777844243 | 11.11° C | 41% | 1009.3 hPa | 0 mm | - | 167 W/m² | - |
| 1777843940 | 11.67° C | 43% | 1009.1 hPa | 0 mm | - | 163 W/m² | - |
| 1777843334 | 11.67° C | 42% | 1009.1 hPa | 0 mm | - | 285 W/m² | - |
| 1777843032 | 11.67° C | 42% | 1009.1 hPa | 0 mm | - | 304 W/m² | - |
| 1777842728 | 11.67° C | 42% | 1009.1 hPa | 0 mm | - | 81 W/m² | - |
| 1777842423 | 11.67° C | 43% | 1009 hPa | 0 mm | - | 418 W/m² | - |
| 1777842121 | 10.56° C | 42% | 1009.1 hPa | 0 mm | - | 425 W/m² | - |
| 1777841512 | 10.56° C | 45% | 1009.3 hPa | 0 mm | - | 165 W/m² | - |
| 1777841209 | 10.56° C | 44% | 1009.2 hPa | 0 mm | - | 142 W/m² | - |
| 1777840604 | 10.56° C | 45% | 1009.6 hPa | 0 mm | - | 214 W/m² | - |
| 1777840301 | 9.44° C | 49% | 1009.3 hPa | 0 mm | - | 200 W/m² | - |
| 1777839998 | 10° C | 46% | 1009.3 hPa | 0 mm | - | 184 W/m² | - |
| 1777839697 | 10.56° C | 45% | 1009.4 hPa | 0 mm | - | 179 W/m² | - |
| 1777839394 | 9.44° C | 48% | 1009.3 hPa | 0 mm | - | 211 W/m² | - |
| 1777839091 | 10.56° C | 44% | 1009.3 hPa | 0 mm | - | 166 W/m² | - |
| 1777838787 | 10° C | 45% | 1009.5 hPa | 0 mm | - | 220 W/m² | - |
| 1777838484 | 9.44° C | 49% | 1009.4 hPa | 0 mm | - | 239 W/m² | - |
| 1777838181 | 9.44° C | 47% | 1009.7 hPa | 0 mm | - | 208 W/m² | - |
| 1777837878 | 9.44° C | 47% | 1009.6 hPa | 0 mm | - | 223 W/m² | - |
| 1777835448 | 8.89° C | 49% | 1010 hPa | 0 mm | - | 180 W/m² | - |
| 1777835145 | 8.89° C | 46% | 1009.9 hPa | 0 mm | - | 261 W/m² | - |
| 1777834539 | 8.89° C | 47% | 1009.9 hPa | 0 mm | - | 223 W/m² | - |
* Rain latest hour (hover to see other rain measurements)
** Current wind speed in m/s (hover to see current wind gust speed)